Карточка аэропорта UWLL

Внимание!
Информация на этой странице в стадии наполнения.
Если вы не увидели какой-то информации, или заметили неточность - пожалуйста сообщите нам!
Спасибо!
Команда RU-STAFF
Название аэропортаБаратаевка
Название аэропорта (англ.)Barataevka
Превышение426 ft. (129.8 m.)
Координаты54°16.236', 48°13.416'
Высота перехода4000 ft
Эшелон переходаQNH>=1013hPa:FL50; QNH<1013hPa:FL60; QNH<977hPa:FL70
Коды ответчика1000
Зона ОрВДСамара РПИ (UWWW)
Данные METARUWLL 310630Z 20007MPS 7000 OVC010 M01/M02 Q1009 R20/810242 NOSIG RMK QFE747/0996
Проноз погоды (TAF)UWLL 310453Z 3106/0106 20006G12MPS 6000 -SN OVC010 TXM00/3111Z TNM10/0106Z TEMPO 3106/3109 17009G14MPS 1000 FZDZ BR OVC003
NOTAMshow/hide NOTAM
AWOS   TABLE

Информация о ВПП

ВПП Длина ВПП (м.) Покрытие Курс ВПП Частота ILS
023100Бетон19110.3
203100Бетон199111.3

Диспетчерские позиции

Позывной Наименование органа УВД Частота
UWLL_GNDУльяновск-Руление121.8
UWLL_R_APPУльяновск-Круг120.8
UWLL_TWRУльяновск-Старт/Посадка120.4
UWLL_APPУльяновск-Подход127.3



Спутниковое изображение